Time;durP1;ratioP1;P1;durP2;ratioP2;P2;SDS_P1;SDS_P2;PMS_P1;PMS_P2;Temp;Humidity;BMP_temperature;BMP_pressure;BME280_temperature;BME280_humidity;BME280_pressure;Samples;Min_cycle;Max_cycle;Signal;HPM_P1;HPM_P2
2023/06/23 00:00:22;;;;;;;13.17;7.53;;;21.00;99.90;;;;;;4384704;28;657378;-68
2023/06/23 00:03:09;;;;;;;10.37;7.93;;;21.10;99.90;;;;;;4361412;28;657700;-68
2023/06/23 00:05:57;;;;;;;15.93;8.30;;;21.10;99.90;;;;;;4362282;28;657500;-69
2023/06/23 00:08:47;;;;;;;12.23;7.43;;;21.10;99.90;;;;;;4373958;28;657896;-69
2023/06/23 00:11:36;;;;;;;11.33;7.70;;;21.10;99.90;;;;;;4352746;28;658075;-69
2023/06/23 00:14:23;;;;;;;11.77;7.40;;;21.10;99.90;;;;;;4359087;28;658162;-68
2023/06/23 00:17:10;;;;;;;10.30;7.70;;;21.10;99.90;;;;;;4369187;28;657762;-69
2023/06/23 00:19:58;;;;;;;11.43;7.30;;;21.00;99.90;;;;;;4388722;28;657331;-68
2023/06/23 00:22:45;;;;;;;9.60;7.67;;;21.00;99.90;;;;;;4373989;28;657545;-69
2023/06/23 00:25:32;;;;;;;10.33;7.20;;;21.10;99.90;;;;;;4385769;28;657257;-69
2023/06/23 00:28:21;;;;;;;14.47;7.93;;;21.00;99.90;;;;;;4376899;28;658127;-68
2023/06/23 00:31:08;;;;;;;12.07;8.00;;;21.00;99.90;;;;;;4360636;28;659270;-68
2023/06/23 00:33:55;;;;;;;10.93;7.10;;;20.90;99.90;;;;;;4365562;28;657987;-69
2023/06/23 00:36:43;;;;;;;11.27;7.40;;;20.90;99.90;;;;;;4383997;28;658938;-69
2023/06/23 00:39:30;;;;;;;10.50;7.80;;;20.90;99.90;;;;;;4378370;28;657782;-69
2023/06/23 00:42:18;;;;;;;10.93;7.47;;;20.90;99.90;;;;;;4379368;28;658891;-68
2023/06/23 00:45:09;;;;;;;11.27;7.60;;;20.90;99.90;;;;;;4364151;28;657899;-69
2023/06/23 00:47:56;;;;;;;10.65;7.22;;;20.90;99.90;;;;;;4358696;28;657797;-69
2023/06/23 00:50:43;;;;;;;12.47;7.93;;;20.90;99.90;;;;;;4383389;28;657633;-68
2023/06/23 00:53:30;;;;;;;10.70;8.13;;;20.80;99.90;;;;;;4362606;28;657467;-69
2023/06/23 00:56:21;;;;;;;11.50;7.53;;;20.80;99.90;;;;;;4382321;28;658522;-68
2023/06/23 00:59:08;;;;;;;10.97;7.63;;;20.80;99.90;;;;;;4360286;28;658125;-68
2023/06/23 01:01:58;;;;;;;10.53;6.80;;;20.80;99.90;;;;;;4364282;28;658083;-69
2023/06/23 01:04:47;;;;;;;10.83;8.13;;;20.80;99.90;;;;;;4368005;28;657816;-69
2023/06/23 01:07:39;;;;;;;15.83;8.03;;;20.80;99.90;;;;;;4384286;28;657545;-68
2023/06/23 01:10:31;;;;;;;12.17;7.30;;;20.80;99.90;;;;;;4338296;28;659041;-69
2023/06/23 01:13:21;;;;;;;13.80;7.67;;;20.70;99.90;;;;;;4360620;28;657927;-68
2023/06/23 01:16:11;;;;;;;14.60;7.80;;;20.70;99.90;;;;;;4360300;28;658254;-69
2023/06/23 01:19:09;;;;;;;9.97;7.63;;;20.70;99.90;;;;;;4363731;28;657792;-69
2023/06/23 01:22:01;;;;;;;10.30;7.53;;;20.70;99.90;;;;;;4351606;28;657129;-69
2023/06/23 01:24:58;;;;;;;13.77;7.57;;;20.70;99.90;;;;;;4365137;28;658633;-68
2023/06/23 01:28:04;;;;;;;13.17;7.47;;;20.80;99.90;;;;;;4340895;28;658380;-68
2023/06/23 01:30:54;;;;;;;10.13;7.50;;;20.70;99.90;;;;;;4337238;28;658098;-69
2023/06/23 01:33:44;;;;;;;11.27;7.50;;;20.70;99.90;;;;;;4373279;28;657955;-69
2023/06/23 01:36:36;;;;;;;18.27;7.67;;;20.70;99.90;;;;;;4387340;28;657867;-69
2023/06/23 01:39:24;;;;;;;10.63;8.07;;;20.70;99.90;;;;;;4352902;28;657663;-68
2023/06/23 01:42:14;;;;;;;15.93;8.47;;;20.70;99.90;;;;;;4359528;28;657530;-69
2023/06/23 01:45:02;;;;;;;13.73;8.30;;;20.60;99.90;;;;;;4362646;28;658109;-69
2023/06/23 01:47:50;;;;;;;22.53;8.03;;;20.60;99.90;;;;;;4383445;28;657342;-68
2023/06/23 01:50:39;;;;;;;13.30;8.23;;;20.60;99.90;;;;;;4360599;28;658278;-68
2023/06/23 01:53:26;;;;;;;17.87;8.80;;;20.60;99.90;;;;;;4360413;28;657789;-69
2023/06/23 01:56:14;;;;;;;15.50;7.83;;;20.50;99.90;;;;;;4375291;28;658901;-69
2023/06/23 01:59:02;;;;;;;15.10;8.10;;;20.50;99.90;;;;;;4361155;28;657498;-68
2023/06/23 02:01:49;;;;;;;12.37;8.27;;;20.40;99.90;;;;;;4380245;28;658104;-69
2023/06/23 02:04:38;;;;;;;17.13;8.33;;;20.40;99.90;;;;;;4362773;28;657958;-69
2023/06/23 02:07:26;;;;;;;14.60;8.83;;;20.40;99.90;;;;;;4365194;28;658178;-68
2023/06/23 02:10:13;;;;;;;16.97;8.47;;;20.40;99.90;;;;;;4383589;28;657483;-68
2023/06/23 02:13:00;;;;;;;12.77;8.63;;;20.40;99.90;;;;;;4364218;28;657746;-68
2023/06/23 02:15:48;;;;;;;12.03;8.80;;;20.40;99.90;;;;;;4387436;28;657671;-69
2023/06/23 02:18:35;;;;;;;11.87;8.90;;;20.40;99.90;;;;;;4358545;28;658527;-69
2023/06/23 02:21:25;;;;;;;12.53;8.63;;;20.40;99.90;;;;;;4383437;28;658372;-69
2023/06/23 02:24:12;;;;;;;14.33;8.47;;;20.40;99.90;;;;;;4365989;28;657943;-69
2023/06/23 02:26:59;;;;;;;15.10;8.50;;;20.40;99.90;;;;;;4387297;28;657434;-69
2023/06/23 02:29:46;;;;;;;21.70;8.73;;;20.30;99.90;;;;;;4369260;28;657441;-68
2023/06/23 02:32:33;;;;;;;13.17;8.90;;;20.10;99.90;;;;;;4372996;28;657509;-69
2023/06/23 02:35:21;;;;;;;10.97;8.77;;;20.10;99.90;;;;;;4365099;28;658022;-69
2023/06/23 02:38:10;;;;;;;13.33;9.20;;;20.10;99.90;;;;;;4384248;28;657529;-69
2023/06/23 02:40:58;;;;;;;13.23;9.47;;;20.20;99.90;;;;;;4355140;28;659132;-68
2023/06/23 02:43:48;;;;;;;10.93;8.60;;;20.10;99.90;;;;;;4373777;28;658664;-69
2023/06/23 02:46:38;;;;;;;14.30;9.80;;;20.00;99.90;;;;;;4371543;28;657806;-69
2023/06/23 02:49:28;;;;;;;16.30;9.00;;;19.90;99.90;;;;;;4363496;28;658367;-69
2023/06/23 02:52:15;;;;;;;12.10;8.93;;;20.00;99.90;;;;;;4375020;28;657208;-69
2023/06/23 02:55:05;;;;;;;13.83;9.23;;;19.90;99.90;;;;;;4389201;28;657544;-69
2023/06/23 02:57:54;;;;;;;12.17;9.50;;;19.90;99.90;;;;;;4350864;28;658626;-69
2023/06/23 03:00:41;;;;;;;16.20;9.77;;;19.90;99.90;;;;;;4365916;28;658069;-68
2023/06/23 03:03:28;;;;;;;15.10;10.30;;;19.90;99.90;;;;;;4385511;28;658308;-69
2023/06/23 03:06:19;;;;;;;20.80;10.23;;;19.90;99.90;;;;;;4364206;28;659155;-70
2023/06/23 03:09:06;;;;;;;17.87;9.93;;;20.00;99.90;;;;;;4364703;28;659312;-69
2023/06/23 03:11:55;;;;;;;15.00;9.63;;;20.10;99.90;;;;;;4385860;28;658246;-69
2023/06/23 03:14:44;;;;;;;16.27;9.10;;;20.10;99.90;;;;;;4358255;28;657650;-68
2023/06/23 03:17:32;;;;;;;13.43;9.57;;;20.10;99.90;;;;;;4358429;28;657626;-69
2023/06/23 03:20:24;;;;;;;17.23;10.37;;;20.10;99.90;;;;;;4375691;28;658433;-69
2023/06/23 03:23:12;;;;;;;17.00;10.07;;;20.20;99.90;;;;;;4338092;28;659394;-69
2023/06/23 03:26:00;;;;;;;21.77;9.73;;;20.30;99.90;;;;;;4380373;28;658996;-69
2023/06/23 03:28:50;;;;;;;18.97;11.13;;;20.30;99.90;;;;;;4360687;28;658616;-69
2023/06/23 03:31:39;;;;;;;14.37;10.20;;;20.40;99.90;;;;;;4360177;28;659437;-69
2023/06/23 03:34:27;;;;;;;16.33;9.90;;;20.50;99.90;;;;;;4359954;28;658902;-68
2023/06/23 03:37:14;;;;;;;17.10;10.07;;;20.50;99.90;;;;;;4383370;28;657178;-68
2023/06/23 03:40:04;;;;;;;17.43;10.73;;;20.40;99.90;;;;;;4358437;28;659240;-69
2023/06/23 03:42:53;;;;;;;17.57;10.47;;;20.50;99.90;;;;;;4361693;28;658641;-68
2023/06/23 03:45:42;;;;;;;17.53;10.97;;;20.60;99.90;;;;;;4365524;28;658733;-69
2023/06/23 03:48:31;;;;;;;16.20;9.87;;;20.60;99.90;;;;;;4382460;28;658585;-68
2023/06/23 03:51:18;;;;;;;17.37;11.17;;;20.60;99.90;;;;;;4363395;28;658927;-68
2023/06/23 03:54:05;;;;;;;15.37;10.67;;;20.70;99.90;;;;;;4363423;28;659064;-69
2023/06/23 03:56:53;;;;;;;23.07;12.10;;;20.70;99.90;;;;;;4383132;28;659637;-69
2023/06/23 03:59:40;;;;;;;18.03;11.13;;;20.80;99.90;;;;;;4376332;28;659031;-68
2023/06/23 04:02:30;;;;;;;17.30;11.57;;;21.00;99.90;;;;;;4381548;28;660220;-68
2023/06/23 04:05:17;;;;;;;17.87;11.33;;;21.10;99.90;;;;;;4348151;28;660223;-68
2023/06/23 04:08:05;;;;;;;17.60;11.77;;;21.10;99.90;;;;;;4381865;28;658636;-68
2023/06/23 04:10:52;;;;;;;19.63;10.60;;;21.20;99.90;;;;;;4362031;28;659558;-68
2023/06/23 04:13:39;;;;;;;21.43;11.03;;;21.30;99.90;;;;;;4382460;28;658633;-68
2023/06/23 04:16:26;;;;;;;15.50;11.10;;;21.40;99.90;;;;;;4355998;28;659185;-68
2023/06/23 04:19:15;;;;;;;17.70;11.63;;;21.50;99.90;;;;;;4384239;28;659287;-69
2023/06/23 04:22:03;;;;;;;15.90;11.90;;;21.60;99.90;;;;;;4362020;28;659463;-67
2023/06/23 04:24:50;;;;;;;18.93;11.60;;;21.60;99.90;;;;;;4372251;28;659068;-68
2023/06/23 04:27:37;;;;;;;15.93;11.97;;;21.70;99.90;;;;;;4368689;28;659673;-67
2023/06/23 04:30:25;;;;;;;16.90;12.17;;;21.80;99.90;;;;;;4364422;28;658425;-68
2023/06/23 04:33:12;;;;;;;16.23;12.10;;;21.80;99.90;;;;;;4371456;28;660529;-68
2023/06/23 04:36:05;;;;;;;18.40;11.83;;;21.90;99.90;;;;;;4351393;28;659184;-69
2023/06/23 04:38:54;;;;;;;16.93;12.83;;;22.00;99.90;;;;;;4342288;28;658715;-68
2023/06/23 04:41:41;;;;;;;15.93;12.27;;;22.10;99.90;;;;;;4347416;28;658804;-68
2023/06/23 04:44:29;;;;;;;18.00;12.13;;;22.20;99.90;;;;;;4365272;28;659610;-68
2023/06/23 04:47:17;;;;;;;19.23;13.27;;;22.40;99.90;;;;;;4345318;28;659213;-68
2023/06/23 04:50:07;;;;;;;17.97;12.43;;;22.50;99.90;;;;;;4363701;28;659209;-68
2023/06/23 04:53:09;;;;;;;20.67;12.43;;;22.70;99.90;;;;;;4339053;28;658553;-68
2023/06/23 04:56:00;;;;;;;19.50;12.50;;;22.70;99.90;;;;;;4345352;28;658963;-68
2023/06/23 04:58:50;;;;;;;18.60;13.17;;;22.90;99.90;;;;;;4343381;28;659277;-67
2023/06/23 05:01:37;;;;;;;17.80;12.73;;;23.10;99.90;;;;;;4344676;28;659092;-67
2023/06/23 05:04:24;;;;;;;18.40;12.97;;;23.20;99.90;;;;;;4362361;28;658855;-68
2023/06/23 05:07:12;;;;;;;22.33;12.93;;;23.40;99.90;;;;;;4342333;28;659516;-68
2023/06/23 05:10:01;;;;;;;18.63;11.97;;;23.50;99.90;;;;;;4356123;28;659055;-67
2023/06/23 05:12:48;;;;;;;17.73;12.23;;;23.60;99.90;;;;;;4341126;28;659664;-67
2023/06/23 05:15:35;;;;;;;21.03;14.03;;;23.70;99.90;;;;;;4348761;28;659782;-68
2023/06/23 05:18:23;;;;;;;17.15;12.90;;;23.90;99.90;;;;;;4363122;28;659708;-67
2023/06/23 05:21:10;;;;;;;17.83;13.85;;;24.00;99.90;;;;;;4352140;28;658608;-68
2023/06/23 05:23:57;;;;;;;22.35;12.95;;;24.30;99.90;;;;;;4370338;28;659046;-68
2023/06/23 05:26:47;;;;;;;19.48;13.35;;;24.30;99.90;;;;;;4367075;28;659655;-68
2023/06/23 05:29:34;;;;;;;19.92;13.00;;;24.60;99.90;;;;;;4381328;28;658921;-67
2023/06/23 05:32:21;;;;;;;16.92;13.38;;;24.60;99.90;;;;;;4361993;28;658990;-67
2023/06/23 05:35:09;;;;;;;17.50;12.88;;;24.80;99.90;;;;;;4376058;28;658802;-67
2023/06/23 05:37:56;;;;;;;21.40;13.60;;;24.80;99.90;;;;;;4361340;28;658703;-68
2023/06/23 05:40:43;;;;;;;19.35;13.45;;;24.80;99.90;;;;;;4385237;28;659423;-68
2023/06/23 05:43:32;;;;;;;18.20;13.23;;;24.70;99.90;;;;;;4364795;28;658877;-68
2023/06/23 05:46:22;;;;;;;20.98;13.00;;;24.60;99.90;;;;;;4378517;28;658816;-68
2023/06/23 05:49:10;;;;;;;21.02;9.00;;;24.40;99.90;;;;;;4361536;28;658825;-68
2023/06/23 05:51:59;;;;;;;17.45;6.03;;;24.00;99.90;;;;;;4356938;28;658623;-67
2023/06/23 05:54:46;;;;;;;12.23;6.03;;;23.30;99.90;;;;;;4368244;28;658070;-71
2023/06/23 05:57:34;;;;;;;15.67;6.50;;;22.70;99.90;;;;;;4388054;28;658979;-67
2023/06/23 06:00:23;;;;;;;25.07;6.20;;;21.90;99.90;;;;;;4368203;28;657774;-68
2023/06/23 06:03:12;;;;;;;23.87;5.80;;;21.40;99.90;;;;;;4372603;28;657349;-71
2023/06/23 06:05:59;;;;;;;23.57;6.53;;;20.70;99.90;;;;;;4380040;28;657638;-69
2023/06/23 06:08:46;;;;;;;11.67;4.53;;;20.00;99.90;;;;;;4366541;28;658319;-68
2023/06/23 06:11:33;;;;;;;19.60;4.47;;;19.60;99.90;;;;;;4392963;28;657898;-67
2023/06/23 06:14:20;;;;;;;14.03;4.27;;;19.30;99.90;;;;;;4363470;28;657386;-68
2023/06/23 06:17:09;;;;;;;20.13;5.30;;;19.10;99.90;;;;;;4382794;28;659013;-69
2023/06/23 06:19:59;;;;;;;17.07;5.40;;;19.00;99.90;;;;;;4363807;28;657508;-69
2023/06/23 06:22:47;;;;;;;17.83;5.73;;;18.90;99.90;;;;;;4361225;28;657813;-68
2023/06/23 06:25:34;;;;;;;20.37;6.73;;;19.20;99.90;;;;;;4374267;28;659414;-69
2023/06/23 06:28:21;;;;;;;14.93;5.70;;;19.10;99.90;;;;;;4347254;28;658156;-70
2023/06/23 06:31:09;;;;;;;16.07;6.23;;;19.20;99.90;;;;;;4367141;28;657666;-70
2023/06/23 06:50:02;;;;;;;21.30;6.67;;;19.20;99.90;;;;;;5098668;27;21388;-71
2023/06/23 06:52:49;;;;;;;17.30;6.70;;;19.20;99.90;;;;;;5081763;28;20277;-71
2023/06/23 06:55:38;;;;;;;15.83;6.90;;;19.20;99.90;;;;;;5069630;28;20685;-71
2023/06/23 06:58:25;;;;;;;24.40;7.77;;;19.10;99.90;;;;;;5077249;27;20204;-71
2023/06/23 07:01:12;;;;;;;15.13;6.67;;;19.20;99.90;;;;;;5074507;28;20210;-70
2023/06/23 07:03:59;;;;;;;23.40;7.07;;;19.20;99.90;;;;;;5078891;28;20200;-71
2023/06/23 07:06:53;;;;;;;15.70;7.37;;;19.20;99.90;;;;;;5078876;28;20575;-71
2023/06/23 07:09:40;;;;;;;20.27;7.20;;;19.20;99.90;;;;;;5080298;28;20226;-71
2023/06/23 07:12:28;;;;;;;14.50;7.13;;;19.20;99.90;;;;;;5071950;27;20211;-71
2023/06/23 07:15:15;;;;;;;20.80;8.93;;;19.20;99.90;;;;;;5077592;28;20204;-70
2023/06/23 07:18:03;;;;;;;14.97;7.23;;;19.20;99.90;;;;;;5076683;28;20283;-71
2023/06/23 07:20:50;;;;;;;17.37;7.87;;;19.20;99.90;;;;;;5077140;28;20219;-71
2023/06/23 07:23:38;;;;;;;12.60;6.70;;;19.20;99.90;;;;;;5078693;28;20219;-71
2023/06/23 07:26:26;;;;;;;17.10;6.63;;;19.30;99.90;;;;;;5074136;28;20203;-71
2023/06/23 07:29:13;;;;;;;12.97;6.87;;;19.30;99.90;;;;;;5075663;28;20364;-70
2023/06/23 07:32:01;;;;;;;15.83;6.60;;;19.20;99.90;;;;;;5070046;28;20210;-71
2023/06/23 07:34:48;;;;;;;18.57;7.40;;;19.30;99.90;;;;;;5077665;28;20206;-70
2023/06/23 07:37:35;;;;;;;13.63;6.37;;;19.40;99.90;;;;;;5070468;28;20220;-70
2023/06/23 07:40:24;;;;;;;12.17;6.50;;;19.50;99.90;;;;;;5048712;28;20215;-71
2023/06/23 07:43:12;;;;;;;14.60;6.93;;;19.40;99.90;;;;;;5059578;28;20193;-71
2023/06/23 07:45:59;;;;;;;13.30;7.53;;;19.60;99.90;;;;;;5056276;28;20197;-71
2023/06/23 07:48:46;;;;;;;14.97;8.17;;;19.80;99.90;;;;;;5042783;28;20635;-69
2023/06/23 07:51:33;;;;;;;19.57;7.57;;;20.00;99.90;;;;;;5044832;28;20303;-71
2023/06/23 07:54:20;;;;;;;21.37;11.27;;;20.20;99.90;;;;;;5045774;28;20208;-71
2023/06/23 07:57:10;;;;;;;18.53;11.80;;;20.50;99.90;;;;;;5034757;28;20220;-71
2023/06/23 07:59:57;;;;;;;18.57;11.47;;;20.70;99.90;;;;;;5042460;28;20205;-71
2023/06/23 08:02:44;;;;;;;17.07;11.40;;;21.00;99.90;;;;;;5046154;28;20244;-71
2023/06/23 08:05:31;;;;;;;20.27;9.20;;;21.20;99.90;;;;;;5029014;28;20877;-70
2023/06/23 08:08:18;;;;;;;15.67;8.70;;;21.00;99.90;;;;;;5039782;28;20200;-72
2023/06/23 08:11:06;;;;;;;16.33;8.57;;;21.10;99.90;;;;;;5047105;28;20336;-71
2023/06/23 08:13:54;;;;;;;15.03;9.53;;;21.10;99.90;;;;;;5046617;28;20197;-71
2023/06/23 08:16:42;;;;;;;16.13;10.27;;;21.10;99.90;;;;;;5044820;28;20225;-70
2023/06/23 08:19:30;;;;;;;17.83;10.07;;;21.40;99.90;;;;;;5044753;28;20311;-71
2023/06/23 08:22:17;;;;;;;15.50;9.87;;;21.80;99.90;;;;;;5039582;28;20217;-69
2023/06/23 08:25:05;;;;;;;16.33;9.97;;;22.20;99.90;;;;;;5039744;28;20228;-71
2023/06/23 08:27:52;;;;;;;21.17;10.07;;;22.40;99.90;;;;;;5043940;28;20208;-70
2023/06/23 08:30:41;;;;;;;23.40;13.23;;;22.60;99.90;;;;;;5044980;28;20346;-70
2023/06/23 08:33:28;;;;;;;21.23;14.37;;;22.80;99.90;;;;;;5038692;28;20695;-70
2023/06/23 08:36:15;;;;;;;23.87;13.50;;;23.00;99.90;;;;;;5039374;28;20224;-70
2023/06/23 08:39:03;;;;;;;21.90;12.67;;;23.10;99.90;;;;;;5042891;28;20603;-70
2023/06/23 08:41:50;;;;;;;20.87;13.93;;;23.20;99.90;;;;;;5033250;28;20193;-71
2023/06/23 08:44:38;;;;;;;23.73;14.27;;;23.20;99.90;;;;;;5042945;28;20208;-71
2023/06/23 08:47:26;;;;;;;28.60;16.00;;;23.20;99.90;;;;;;5043161;28;20193;-71
2023/06/23 08:50:14;;;;;;;23.03;13.03;;;23.40;99.90;;;;;;5040572;28;20206;-71
2023/06/23 08:53:01;;;;;;;23.87;13.40;;;23.50;99.90;;;;;;5039974;28;20201;-71
2023/06/23 08:55:48;;;;;;;23.17;12.83;;;23.60;99.90;;;;;;5044861;28;20331;-71
2023/06/23 08:58:36;;;;;;;25.43;11.80;;;23.40;99.90;;;;;;5033671;28;20255;-71
2023/06/23 09:01:23;;;;;;;26.93;12.07;;;23.60;99.90;;;;;;5043475;28;20286;-71
2023/06/23 09:04:11;;;;;;;21.33;10.93;;;23.60;99.90;;;;;;5045214;28;20201;-71
2023/06/23 09:06:59;;;;;;;16.90;9.90;;;23.60;99.90;;;;;;5046179;28;20205;-71
2023/06/23 09:09:47;;;;;;;14.03;7.87;;;23.80;99.90;;;;;;5044588;28;20201;-71
2023/06/23 09:12:34;;;;;;;26.60;9.60;;;23.90;99.90;;;;;;5044180;28;20209;-70
2023/06/23 09:15:22;;;;;;;14.82;7.75;;;24.00;99.90;;;;;;5041284;28;20228;-71
2023/06/23 09:18:09;;;;;;;14.55;6.55;;;24.00;99.90;;;;;;5041778;28;20214;-71
2023/06/23 09:20:57;;;;;;;22.27;7.37;;;23.80;99.90;;;;;;5043972;28;20194;-71
2023/06/23 09:23:58;;;;;;;16.47;6.77;;;23.70;99.90;;;;;;5045409;28;20209;-71
2023/06/23 09:26:46;;;;;;;16.73;6.67;;;23.80;99.90;;;;;;5046315;28;20308;-71
2023/06/23 09:29:33;;;;;;;12.98;6.22;;;23.80;99.90;;;;;;5045601;28;20263;-71
2023/06/23 09:32:28;;;;;;;21.23;6.20;;;23.80;99.90;;;;;;5038164;28;20205;-71
2023/06/23 09:35:19;;;;;;;16.77;7.35;;;24.00;99.90;;;;;;5042953;28;20197;-71
2023/06/23 09:38:07;;;;;;;20.20;6.88;;;24.10;99.90;;;;;;5043524;28;20363;-70
2023/06/23 09:41:08;;;;;;;12.15;6.43;;;24.10;99.90;;;;;;5045082;28;20620;-71
2023/06/23 09:43:56;;;;;;;13.48;6.95;;;24.40;99.90;;;;;;5046115;28;20213;-71
2023/06/23 09:46:43;;;;;;;15.68;6.75;;;24.70;99.90;;;;;;5047992;28;20283;-71
2023/06/23 09:49:38;;;;;;;16.10;6.32;;;24.90;99.90;;;;;;5037031;28;20233;-70
2023/06/23 09:52:28;;;;;;;17.67;6.78;;;25.00;99.90;;;;;;5044123;28;20201;-71
2023/06/23 09:55:17;;;;;;;18.08;7.10;;;25.20;99.90;;;;;;5046455;28;20208;-70
2023/06/23 09:58:08;;;;;;;15.63;6.18;;;25.30;99.90;;;;;;5043031;28;20244;-71
2023/06/23 10:01:00;;;;;;;15.18;5.68;;;25.40;99.90;;;;;;5047664;28;20205;-71
2023/06/23 10:03:48;;;;;;;16.00;6.35;;;25.80;99.90;;;;;;5042008;28;20194;-71
2023/06/23 10:06:38;;;;;;;15.40;6.90;;;26.10;99.90;;;;;;5039589;28;20201;-71
2023/06/23 10:09:26;;;;;;;14.57;6.78;;;26.10;99.90;;;;;;5044856;28;20215;-71
2023/06/23 10:12:14;;;;;;;17.95;7.10;;;26.30;99.90;;;;;;5045942;28;20283;-71
2023/06/23 10:15:02;;;;;;;18.13;7.25;;;26.50;99.90;;;;;;5044873;28;20201;-71
2023/06/23 10:17:49;;;;;;;14.55;7.47;;;26.70;99.90;;;;;;5046270;28;20221;-71
2023/06/23 10:20:36;;;;;;;13.25;8.05;;;26.80;99.90;;;;;;5042250;28;20219;-70
2023/06/23 10:23:23;;;;;;;22.58;8.32;;;26.90;99.90;;;;;;5044831;28;20674;-70
2023/06/23 10:26:10;;;;;;;16.70;8.48;;;27.10;99.90;;;;;;5042905;28;20537;-70
2023/06/23 10:28:59;;;;;;;23.02;8.70;;;27.30;99.90;;;;;;5044285;28;20193;-70
2023/06/23 10:31:47;;;;;;;18.85;9.45;;;27.30;99.90;;;;;;5046163;28;20232;-70
2023/06/23 10:34:34;;;;;;;20.38;9.48;;;27.50;99.90;;;;;;5047715;28;21020;-70
2023/06/23 10:37:22;;;;;;;25.05;9.55;;;27.60;99.90;;;;;;5046009;28;20213;-71
2023/06/23 10:40:10;;;;;;;23.83;9.60;;;27.70;99.90;;;;;;5037724;28;20788;-70
2023/06/23 10:43:00;;;;;;;23.75;10.60;;;27.60;99.90;;;;;;5045707;28;20274;-70
2023/06/23 10:45:48;;;;;;;25.58;10.65;;;27.90;99.90;;;;;;5042641;28;20192;-70
2023/06/23 10:48:35;;;;;;;22.33;10.40;;;28.00;99.90;;;;;;5045108;28;20741;-71
2023/06/23 10:51:23;;;;;;;19.48;10.98;;;27.70;99.90;;;;;;5046475;28;20259;-70
2023/06/23 10:54:10;;;;;;;20.65;10.55;;;28.00;99.90;;;;;;5034749;28;20208;-70
2023/06/23 10:56:57;;;;;;;26.92;11.70;;;28.00;99.90;;;;;;5040067;28;20718;-71
2023/06/23 10:59:45;;;;;;;27.85;14.25;;;27.70;99.90;;;;;;5047016;28;20627;-70
2023/06/23 11:02:51;;;;;;;25.63;13.32;;;27.00;99.90;;;;;;5045686;28;20280;-70
2023/06/23 11:05:42;;;;;;;24.77;12.57;;;27.30;99.90;;;;;;5044735;28;20262;-70
2023/06/23 11:08:32;;;;;;;19.00;12.30;;;27.20;99.90;;;;;;5033625;28;20243;-70
2023/06/23 11:11:19;;;;;;;25.95;12.32;;;27.30;99.90;;;;;;5044968;28;20208;-70
2023/06/23 11:14:06;;;;;;;21.98;12.80;;;27.60;99.90;;;;;;5040417;28;20224;-70
2023/06/23 11:16:54;;;;;;;23.65;13.10;;;27.70;99.90;;;;;;5046391;28;20208;-70
2023/06/23 11:19:42;;;;;;;24.05;12.70;;;27.70;99.90;;;;;;5043692;28;20201;-70
2023/06/23 11:22:29;;;;;;;26.40;14.18;;;27.20;99.90;;;;;;5045810;28;20331;-70
2023/06/23 11:25:24;;;;;;;30.00;14.75;;;26.80;99.90;;;;;;5043354;28;20544;-70
2023/06/23 11:28:29;;;;;;;26.05;14.45;;;26.70;99.90;;;;;;5045943;28;20201;-70
2023/06/23 11:31:16;;;;;;;25.10;13.73;;;26.80;99.90;;;;;;5045575;28;20305;-69
2023/06/23 11:34:03;;;;;;;26.67;14.15;;;27.00;99.90;;;;;;5045863;28;20579;-70
2023/06/23 11:36:52;;;;;;;22.92;14.02;;;27.30;99.90;;;;;;5046695;28;20193;-69
2023/06/23 11:39:39;;;;;;;26.60;15.18;;;27.40;99.90;;;;;;5048291;28;20249;-69
2023/06/23 11:42:26;;;;;;;25.20;13.68;;;26.90;99.90;;;;;;5039568;28;20228;-69
2023/06/23 11:45:14;;;;;;;23.23;13.32;;;27.00;99.90;;;;;;5046216;28;20250;-69
2023/06/23 11:48:01;;;;;;;22.45;14.50;;;26.80;99.90;;;;;;5047211;28;20236;-68
2023/06/23 11:50:48;;;;;;;24.42;14.68;;;26.90;99.90;;;;;;5047241;28;20205;-68
2023/06/23 11:53:40;;;;;;;26.77;14.32;;;26.90;99.90;;;;;;5047227;28;20587;-68
2023/06/23 11:56:27;;;;;;;21.85;13.60;;;26.50;99.90;;;;;;5044801;28;20541;-69
2023/06/23 11:59:14;;;;;;;19.70;12.25;;;26.60;99.90;;;;;;5036947;28;20189;-69
2023/06/23 12:02:01;;;;;;;23.20;11.55;;;26.40;99.90;;;;;;5044520;28;20197;-69
2023/06/23 12:04:49;;;;;;;20.90;10.40;;;26.30;99.90;;;;;;5047171;28;20208;-69
2023/06/23 12:07:37;;;;;;;15.55;9.27;;;26.60;99.90;;;;;;5046604;28;20280;-69
2023/06/23 12:10:25;;;;;;;14.20;9.98;;;26.80;99.90;;;;;;5047586;28;20197;-69
2023/06/23 12:13:13;;;;;;;19.35;9.60;;;27.20;99.90;;;;;;5042414;28;20208;-69
2023/06/23 12:16:00;;;;;;;16.33;9.80;;;26.80;99.90;;;;;;5036334;28;20278;-70
2023/06/23 12:18:48;;;;;;;18.98;10.80;;;26.90;99.90;;;;;;5044088;28;20732;-69
2023/06/23 12:21:37;;;;;;;15.82;9.23;;;27.30;99.90;;;;;;5045952;28;20548;-69
2023/06/23 12:24:25;;;;;;;12.30;8.35;;;27.60;99.90;;;;;;5047496;28;20514;-69
2023/06/23 12:27:13;;;;;;;13.40;7.68;;;27.50;99.90;;;;;;5043189;28;20227;-69
2023/06/23 12:30:15;;;;;;;19.00;8.52;;;27.30;99.90;;;;;;5042872;28;20668;-69
2023/06/23 12:33:03;;;;;;;15.75;7.80;;;27.00;99.90;;;;;;5038716;28;20209;-68
2023/06/23 12:35:57;;;;;;;13.40;7.35;;;27.10;99.90;;;;;;5043829;28;20292;-68
2023/06/23 12:38:47;;;;;;;14.23;7.28;;;27.40;99.90;;;;;;5046152;28;20224;-68
2023/06/23 12:41:34;;;;;;;9.20;6.05;;;27.50;99.90;;;;;;5045713;28;20216;-68
2023/06/23 12:44:23;;;;;;;11.02;6.18;;;27.20;99.90;;;;;;5045462;28;20221;-68
2023/06/23 12:47:11;;;;;;;11.75;6.60;;;27.30;99.90;;;;;;5046211;28;20685;-68
2023/06/23 12:50:04;;;;;;;14.25;6.43;;;27.40;99.90;;;;;;5047065;28;20714;-68
2023/06/23 12:52:52;;;;;;;13.27;6.20;;;27.50;99.90;;;;;;5042595;28;20198;-70
2023/06/23 12:55:39;;;;;;;11.27;6.10;;;27.70;99.90;;;;;;5044213;28;20719;-67
2023/06/23 12:58:27;;;;;;;12.45;6.07;;;27.80;99.90;;;;;;5045502;28;20699;-69
2023/06/23 13:01:17;;;;;;;13.82;5.13;;;27.60;99.90;;;;;;5044205;28;20613;-69
2023/06/23 13:04:05;;;;;;;13.43;5.45;;;27.40;99.90;;;;;;5041245;28;20692;-68
2023/06/23 13:06:52;;;;;;;9.50;5.00;;;27.70;99.90;;;;;;5044798;28;20205;-68
2023/06/23 13:09:39;;;;;;;11.98;5.10;;;27.90;99.90;;;;;;5033562;28;20272;-69
2023/06/23 13:12:26;;;;;;;13.02;5.00;;;27.50;99.90;;;;;;5045515;28;20228;-68
2023/06/23 13:15:14;;;;;;;10.75;4.78;;;27.80;99.90;;;;;;5044323;28;20292;-69
2023/06/23 13:18:03;;;;;;;8.85;4.90;;;27.80;99.90;;;;;;5046276;28;20306;-68
2023/06/23 13:20:50;;;;;;;15.07;5.80;;;27.70;99.90;;;;;;5045440;28;20202;-68
2023/06/23 13:23:37;;;;;;;10.43;5.60;;;28.10;99.90;;;;;;5045752;28;20217;-68
2023/06/23 13:26:24;;;;;;;11.63;5.40;;;28.10;99.90;;;;;;5032248;28;20212;-69
2023/06/23 13:29:11;;;;;;;13.55;5.80;;;28.40;99.90;;;;;;5043151;28;20670;-68
2023/06/23 13:31:58;;;;;;;12.07;5.30;;;28.40;99.90;;;;;;5043386;28;20571;-69
2023/06/23 13:34:47;;;;;;;16.02;5.28;;;28.60;99.90;;;;;;5043780;28;20230;-69
2023/06/23 13:37:36;;;;;;;11.63;5.38;;;28.50;99.90;;;;;;5042139;28;20205;-69
2023/06/23 13:40:24;;;;;;;11.65;5.43;;;28.00;99.90;;;;;;5037007;28;20208;-70
2023/06/23 13:43:11;;;;;;;12.50;5.00;;;28.10;99.90;;;;;;5038143;28;20208;-69
2023/06/23 13:45:58;;;;;;;11.07;5.40;;;28.10;99.90;;;;;;5043368;28;20209;-70
2023/06/23 13:48:45;;;;;;;12.93;5.43;;;28.00;99.90;;;;;;5045295;28;20318;-70
2023/06/23 13:51:34;;;;;;;10.55;5.25;;;27.70;99.90;;;;;;5043829;28;20212;-69
2023/06/23 13:54:22;;;;;;;12.32;4.95;;;27.60;99.90;;;;;;5042200;28;20189;-70
2023/06/23 13:57:10;;;;;;;11.68;5.72;;;27.60;99.90;;;;;;5039480;28;20240;-70
2023/06/23 13:59:57;;;;;;;12.55;5.78;;;27.30;99.90;;;;;;5042993;28;20216;-70
2023/06/23 14:02:44;;;;;;;13.23;5.28;;;27.50;99.90;;;;;;5044268;28;20212;-70
2023/06/23 14:05:32;;;;;;;11.20;5.85;;;27.40;99.90;;;;;;5035461;28;20205;-70
2023/06/23 14:08:20;;;;;;;10.77;5.53;;;27.40;99.90;;;;;;5042913;28;20220;-70
2023/06/23 14:11:07;;;;;;;10.70;6.05;;;27.40;99.90;;;;;;5033991;28;20220;-69
2023/06/23 14:13:55;;;;;;;11.82;5.95;;;27.60;99.90;;;;;;5046708;28;20228;-70
2023/06/23 14:16:42;;;;;;;14.68;6.15;;;27.70;99.90;;;;;;5044511;28;20755;-70
2023/06/23 14:19:29;;;;;;;15.60;5.93;;;28.10;99.90;;;;;;5045950;28;20225;-70
2023/06/23 14:22:16;;;;;;;12.60;5.65;;;28.30;99.90;;;;;;5042537;28;20660;-70
2023/06/23 14:25:08;;;;;;;12.02;5.70;;;28.30;99.90;;;;;;5045312;28;20201;-70
2023/06/23 14:27:55;;;;;;;13.75;5.93;;;28.10;99.90;;;;;;5046229;28;20197;-70
2023/06/23 14:30:43;;;;;;;10.68;6.13;;;28.00;99.90;;;;;;5041031;28;20223;-70